createdAt,value
2019-02-16T00:02:21.453Z,99.90
2019-02-16T00:04:50.006Z,99.90
2019-02-16T00:07:18.600Z,99.90
2019-02-16T00:09:47.165Z,99.90
2019-02-16T00:12:16.688Z,99.90
2019-02-16T00:14:45.248Z,99.90
2019-02-16T00:17:13.809Z,99.90
2019-02-16T00:19:42.409Z,99.90
2019-02-16T00:22:10.960Z,99.90
2019-02-16T00:24:39.555Z,99.90
2019-02-16T00:27:08.152Z,99.90
2019-02-16T00:29:36.705Z,99.90
2019-02-16T00:32:05.310Z,99.90
2019-02-16T00:34:33.868Z,99.90
2019-02-16T00:37:02.442Z,99.90
2019-02-16T00:39:31.045Z,99.90
2019-02-16T00:41:59.594Z,99.90
2019-02-16T00:44:30.112Z,99.90
2019-02-16T00:46:58.410Z,99.90
2019-02-16T00:49:27.001Z,99.90
2019-02-16T00:51:55.605Z,99.90
2019-02-16T00:54:24.169Z,99.90
2019-02-16T00:56:52.874Z,99.90
2019-02-16T00:59:21.459Z,99.90
2019-02-16T01:01:50.014Z,99.90
2019-02-16T01:04:18.589Z,99.90
2019-02-16T01:06:47.293Z,99.90
2019-02-16T01:09:15.859Z,99.90
2019-02-16T01:11:44.721Z,99.90
2019-02-16T01:14:13.277Z,99.90
2019-02-16T01:16:41.846Z,99.90
2019-02-16T01:19:10.434Z,99.90
2019-02-16T01:21:39.008Z,99.90
2019-02-16T01:24:07.594Z,99.90
2019-02-16T01:26:36.161Z,99.90
2019-02-16T01:29:04.764Z,99.90
2019-02-16T01:31:33.312Z,99.90
2019-02-16T01:34:01.902Z,99.90
2019-02-16T01:36:30.465Z,99.90
2019-02-16T01:38:59.061Z,99.90
2019-02-16T01:41:27.622Z,99.90
2019-02-16T01:43:56.183Z,99.90
2019-02-16T01:46:24.779Z,99.90
2019-02-16T01:48:53.333Z,99.90
2019-02-16T01:51:21.943Z,99.90
2019-02-16T01:53:50.501Z,99.90
2019-02-16T01:56:19.873Z,99.90
2019-02-16T01:58:48.470Z,99.90
2019-02-16T02:01:17.105Z,99.90
2019-02-16T02:03:45.708Z,99.90
2019-02-16T02:06:14.269Z,99.90
2019-02-16T02:08:42.907Z,99.90
2019-02-16T02:11:11.524Z,99.90
2019-02-16T02:13:40.092Z,99.90
2019-02-16T02:16:09.814Z,99.90
2019-02-16T02:18:38.421Z,99.90
2019-02-16T02:21:06.981Z,99.90
2019-02-16T02:23:35.589Z,99.90
2019-02-16T02:26:04.157Z,99.90
2019-02-16T02:28:32.984Z,99.90
2019-02-16T02:31:01.577Z,99.90
2019-02-16T02:33:30.147Z,99.90
2019-02-16T02:35:58.744Z,99.90
2019-02-16T02:38:27.297Z,99.90
2019-02-16T02:40:55.855Z,99.90
2019-02-16T02:43:24.514Z,99.90
2019-02-16T02:45:53.082Z,99.90
2019-02-16T02:48:21.642Z,99.90
2019-02-16T02:50:50.232Z,99.90
2019-02-16T02:53:18.795Z,99.90
2019-02-16T02:55:47.389Z,99.90
2019-02-16T02:58:15.957Z,99.90
2019-02-16T03:00:44.513Z,99.90
2019-02-16T03:03:13.105Z,99.90
2019-02-16T03:05:41.669Z,99.90
2019-02-16T03:08:10.246Z,99.90
2019-02-16T03:10:38.847Z,99.90
2019-02-16T03:13:07.441Z,99.90
2019-02-16T03:15:36.044Z,99.90
2019-02-16T03:18:04.602Z,99.90
2019-02-16T03:20:33.159Z,99.90
2019-02-16T03:23:18.577Z,99.90
2019-02-16T03:25:52.859Z,99.90
2019-02-16T03:28:30.042Z,99.90
2019-02-16T03:31:10.153Z,99.90
2019-02-16T03:33:47.540Z,99.90
2019-02-16T03:36:52.034Z,99.90
2019-02-16T03:39:20.639Z,99.90
2019-02-16T03:41:49.200Z,99.90
2019-02-16T03:44:17.753Z,99.90
2019-02-16T03:46:46.349Z,99.90
2019-02-16T03:49:15.010Z,99.90
2019-02-16T03:51:43.519Z,99.90
2019-02-16T03:54:12.075Z,99.90
2019-02-16T03:56:40.672Z,99.90
2019-02-16T03:59:09.242Z,99.90
2019-02-16T04:01:37.800Z,99.90
2019-02-16T04:04:06.399Z,99.90
2019-02-16T04:06:35.025Z,99.90
2019-02-16T04:09:05.949Z,99.90
2019-02-16T04:11:34.677Z,99.90
2019-02-16T04:14:03.343Z,99.90
2019-02-16T04:16:31.899Z,99.90
2019-02-16T04:19:00.485Z,99.90
2019-02-16T04:21:29.045Z,99.90
2019-02-16T04:23:57.705Z,99.90
2019-02-16T04:26:26.981Z,99.90
2019-02-16T04:28:55.568Z,99.90
2019-02-16T04:31:24.205Z,99.90
2019-02-16T04:33:52.809Z,99.90
2019-02-16T04:36:21.370Z,99.90
2019-02-16T04:38:50.029Z,99.90
2019-02-16T04:41:18.601Z,99.90
2019-02-16T04:43:47.177Z,99.90
2019-02-16T04:46:15.783Z,99.90
2019-02-16T04:48:44.368Z,99.90
2019-02-16T04:51:12.937Z,99.90
2019-02-16T04:53:41.539Z,99.90
2019-02-16T04:56:10.102Z,99.90
2019-02-16T04:58:38.664Z,99.90
2019-02-16T05:01:07.260Z,99.90
2019-02-16T05:03:35.815Z,99.90
2019-02-16T05:06:04.389Z,99.90
2019-02-16T05:08:32.987Z,99.90
2019-02-16T05:11:01.550Z,99.90
2019-02-16T05:13:30.132Z,99.90
2019-02-16T05:15:58.747Z,99.90
2019-02-16T05:18:28.052Z,99.90
2019-02-16T05:20:56.632Z,99.90
2019-02-16T05:23:25.197Z,99.90
2019-02-16T05:25:53.806Z,99.90
2019-02-16T05:28:22.361Z,99.90
2019-02-16T05:30:50.925Z,99.90
2019-02-16T05:33:19.514Z,99.90
2019-02-16T05:35:48.168Z,99.90
2019-02-16T05:38:17.095Z,99.90
2019-02-16T05:40:47.399Z,99.90
2019-02-16T05:43:16.396Z,99.90
2019-02-16T05:45:45.015Z,99.90
2019-02-16T05:48:13.669Z,99.90
2019-02-16T05:50:42.393Z,99.90
2019-02-16T05:53:11.136Z,99.90
2019-02-16T05:55:39.767Z,99.90
2019-02-16T05:58:08.430Z,99.90
2019-02-16T06:00:37.654Z,99.90
2019-02-16T06:03:06.222Z,99.90
2019-02-16T06:05:35.032Z,99.90
2019-02-16T06:08:03.717Z,99.90
2019-02-16T06:10:32.277Z,99.90
2019-02-16T06:13:00.831Z,99.90
2019-02-16T06:15:29.487Z,99.90
2019-02-16T06:17:58.044Z,99.90
2019-02-16T06:20:26.632Z,99.90
2019-02-16T06:23:03.689Z,99.90
2019-02-16T06:25:25.712Z,99.90
2019-02-16T06:27:54.253Z,99.90
2019-02-16T06:30:22.869Z,99.90
2019-02-16T06:32:51.438Z,99.90
2019-02-16T06:35:27.405Z,99.90
2019-02-16T06:37:55.996Z,99.90
2019-02-16T06:40:24.608Z,99.90
2019-02-16T06:42:53.295Z,99.90
2019-02-16T06:45:22.001Z,99.90
2019-02-16T06:47:50.608Z,99.90
2019-02-16T06:50:19.180Z,99.90
2019-02-16T06:52:47.749Z,99.90
2019-02-16T06:57:58.884Z,99.90
2019-02-16T07:00:27.906Z,99.90
2019-02-16T07:02:56.609Z,99.90
2019-02-16T07:05:25.213Z,99.90
2019-02-16T07:07:53.773Z,99.90
2019-02-16T07:10:22.364Z,99.90
2019-02-16T07:12:50.954Z,99.90
2019-02-16T07:15:19.542Z,99.90
2019-02-16T07:17:52.613Z,99.90
2019-02-16T07:20:21.954Z,99.90
2019-02-16T07:22:50.506Z,99.90
2019-02-16T07:25:19.106Z,99.90
2019-02-16T07:27:47.668Z,99.90
2019-02-16T07:30:16.266Z,99.90
2019-02-16T07:32:44.824Z,99.90
2019-02-16T07:35:13.387Z,99.90
2019-02-16T07:37:41.969Z,99.90
2019-02-16T07:40:10.632Z,99.90
2019-02-16T07:42:52.440Z,99.90
2019-02-16T07:45:25.068Z,99.90
2019-02-16T07:48:11.610Z,99.90
2019-02-16T07:50:50.731Z,99.90
2019-02-16T07:53:31.583Z,99.90
2019-02-16T07:56:01.848Z,99.90
2019-02-16T07:58:32.152Z,99.90
2019-02-16T08:01:14.241Z,99.90
2019-02-16T08:03:47.251Z,99.90
2019-02-16T08:06:17.484Z,99.90
2019-02-16T08:09:03.905Z,99.90
2019-02-16T08:11:46.075Z,99.90
2019-02-16T08:14:19.016Z,99.90
2019-02-16T08:16:55.180Z,99.90
2019-02-16T08:19:43.408Z,99.90
2019-02-16T08:22:13.600Z,99.90
2019-02-16T08:24:43.796Z,99.90
2019-02-16T08:27:19.732Z,99.90
2019-02-16T08:29:49.945Z,99.90
2019-02-16T08:32:20.154Z,99.90
2019-02-16T08:34:53.418Z,99.90
2019-02-16T08:37:32.313Z,99.90
2019-02-16T08:40:08.367Z,99.90
2019-02-16T08:42:54.568Z,99.90
2019-02-16T08:45:40.950Z,99.90
2019-02-16T08:48:22.675Z,99.90
2019-02-16T08:50:52.878Z,99.90
2019-02-16T08:53:26.052Z,99.90
2019-02-16T08:56:02.069Z,99.90
2019-02-16T08:58:38.280Z,99.90
2019-02-16T09:01:17.309Z,99.60
2019-02-16T09:03:56.030Z,99.30
2019-02-16T09:06:40.869Z,99.00
2019-02-16T09:09:27.246Z,98.60
2019-02-16T09:12:12.373Z,98.80
2019-02-16T09:14:57.379Z,98.00
2019-02-16T09:17:36.252Z,97.10
2019-02-16T09:20:23.942Z,96.40
2019-02-16T09:22:54.174Z,96.10
2019-02-16T09:25:26.913Z,96.20
2019-02-16T09:28:06.096Z,96.20
2019-02-16T09:30:38.924Z,95.80
2019-02-16T09:33:24.101Z,95.90
2019-02-16T09:35:54.344Z,96.10
2019-02-16T09:38:26.996Z,96.00
2019-02-16T09:40:57.253Z,96.10
2019-02-16T09:43:33.449Z,95.80
2019-02-16T09:46:09.451Z,96.00
2019-02-16T09:48:39.646Z,95.70
2019-02-16T09:51:09.880Z,95.50
2019-02-16T09:53:41.037Z,95.80
2019-02-16T09:56:11.636Z,95.50
2019-02-16T09:58:47.648Z,95.70
2019-02-16T10:01:17.848Z,96.10
2019-02-16T10:03:53.901Z,96.50
2019-02-16T10:06:30.048Z,96.10
2019-02-16T10:09:06.220Z,96.20
2019-02-16T10:11:41.896Z,95.60
2019-02-16T10:14:14.609Z,95.90
2019-02-16T10:16:44.816Z,95.80
2019-02-16T10:19:33.082Z,95.70
2019-02-16T10:22:06.153Z,95.40
2019-02-16T10:24:36.328Z,95.70
2019-02-16T10:27:09.421Z,95.80
2019-02-16T10:29:42.732Z,95.90
2019-02-16T10:32:18.507Z,95.60
2019-02-16T10:34:48.739Z,95.40
2019-02-16T10:37:18.952Z,96.10
2019-02-16T10:39:49.180Z,95.80
2019-02-16T10:42:21.949Z,95.20
2019-02-16T10:44:52.190Z,95.90
2019-02-16T10:47:34.292Z,95.20
2019-02-16T10:50:07.264Z,95.10
2019-02-16T10:52:46.266Z,94.60
2019-02-16T10:55:22.026Z,97.30
2019-02-16T10:57:52.276Z,96.80
2019-02-16T11:00:28.180Z,96.10
2019-02-16T11:03:01.473Z,96.70
2019-02-16T11:05:37.481Z,96.50
2019-02-16T11:08:16.305Z,95.50
2019-02-16T11:10:46.583Z,96.60
2019-02-16T11:13:28.698Z,94.60
2019-02-16T11:16:01.734Z,94.40
2019-02-16T11:18:46.929Z,94.40
2019-02-16T11:21:17.143Z,94.50
2019-02-16T11:23:56.481Z,94.90
2019-02-16T11:26:32.492Z,95.20
2019-02-16T11:29:18.923Z,94.90
2019-02-16T11:32:04.242Z,94.90
2019-02-16T11:34:34.478Z,95.20
2019-02-16T11:37:04.703Z,95.30
2019-02-16T11:39:51.056Z,95.30
2019-02-16T11:42:26.754Z,94.90
2019-02-16T11:45:12.855Z,95.60
2019-02-16T11:47:48.829Z,96.10
2019-02-16T11:50:19.050Z,95.90
2019-02-16T11:52:49.300Z,95.70
2019-02-16T11:55:19.657Z,95.40
2019-02-16T11:57:55.304Z,95.60
2019-02-16T12:00:37.110Z,95.90
2019-02-16T12:03:10.116Z,96.10
2019-02-16T12:05:40.317Z,95.80
2019-02-16T12:08:25.225Z,95.40
2019-02-16T12:11:11.598Z,96.00
2019-02-16T12:13:47.418Z,95.80
2019-02-16T12:16:17.629Z,96.20
2019-02-16T12:18:56.548Z,96.30
2019-02-16T12:21:44.501Z,96.50
2019-02-16T12:24:15.643Z,96.70
2019-02-16T12:26:48.463Z,96.30
2019-02-16T12:29:33.735Z,95.80
2019-02-16T12:32:06.901Z,96.10
2019-02-16T12:34:42.929Z,96.30
2019-02-16T12:37:19.085Z,97.30
2019-02-16T12:39:49.295Z,96.70
2019-02-16T12:42:28.065Z,96.50
2019-02-16T12:44:58.472Z,96.40
2019-02-16T12:47:28.692Z,96.50
2019-02-16T12:50:14.957Z,97.20
2019-02-16T12:52:45.201Z,97.20
2019-02-16T12:55:30.513Z,97.30
2019-02-16T12:58:06.264Z,97.00
2019-02-16T13:00:39.419Z,99.00
2019-02-16T13:03:09.634Z,99.20
2019-02-16T13:05:42.829Z,98.70
2019-02-16T13:08:13.046Z,98.90
2019-02-16T13:10:45.954Z,99.20
2019-02-16T13:13:25.103Z,98.60
2019-02-16T13:15:55.305Z,98.50
2019-02-16T13:18:28.300Z,99.40
2019-02-16T13:21:01.073Z,99.10
2019-02-16T13:23:31.282Z,99.20
2019-02-16T13:26:01.517Z,98.50
2019-02-16T13:28:48.173Z,98.80
2019-02-16T13:31:20.963Z,98.80
2019-02-16T13:33:59.665Z,98.70
2019-02-16T13:36:41.852Z,98.90
2019-02-16T13:39:17.937Z,99.10
2019-02-16T13:42:06.069Z,99.00
2019-02-16T13:44:39.101Z,99.30
2019-02-16T13:47:09.334Z,99.10
2019-02-16T13:49:45.287Z,99.20
2019-02-16T13:52:21.314Z,99.30
2019-02-16T13:54:54.292Z,99.50
2019-02-16T13:57:39.066Z,99.60
2019-02-16T14:00:15.852Z,99.60
2019-02-16T14:03:04.004Z,99.70
2019-02-16T14:05:50.434Z,99.90
2019-02-16T14:08:26.272Z,99.90
2019-02-16T14:10:59.188Z,99.90
2019-02-16T14:13:45.776Z,99.90
2019-02-16T14:16:18.789Z,99.90
2019-02-16T14:18:47.476Z,99.90
2019-02-16T14:21:16.182Z,99.90
2019-02-16T14:23:44.856Z,99.90
2019-02-16T14:26:13.517Z,99.90
2019-02-16T14:28:42.436Z,99.90
2019-02-16T14:31:12.637Z,99.90
2019-02-16T14:33:41.241Z,99.90
2019-02-16T14:36:10.047Z,99.90
2019-02-16T14:38:40.398Z,99.90
2019-02-16T14:41:09.094Z,99.90
2019-02-16T14:43:37.725Z,99.90
2019-02-16T14:46:06.292Z,99.90
2019-02-16T14:48:34.915Z,99.90
2019-02-16T14:51:03.594Z,99.90
2019-02-16T14:53:32.311Z,99.90
2019-02-16T14:56:00.935Z,99.90
2019-02-16T14:58:29.871Z,99.90
2019-02-16T15:00:58.644Z,99.90
2019-02-16T15:03:27.367Z,99.90
2019-02-16T15:05:56.596Z,99.90
2019-02-16T15:08:25.739Z,99.90
2019-02-16T15:10:54.749Z,99.90
2019-02-16T15:13:23.317Z,99.90
2019-02-16T15:15:52.820Z,99.90
2019-02-16T15:18:21.421Z,99.90
2019-02-16T15:20:49.988Z,99.90
2019-02-16T15:23:18.620Z,99.90
2019-02-16T15:25:47.233Z,99.90
2019-02-16T15:28:16.094Z,99.90
2019-02-16T15:30:44.689Z,99.90
2019-02-16T15:33:13.910Z,99.90
2019-02-16T15:35:42.799Z,99.90
2019-02-16T15:38:11.370Z,99.90
2019-02-16T15:40:40.068Z,99.90
2019-02-16T15:43:08.621Z,99.90
2019-02-16T15:45:37.325Z,99.90
2019-02-16T15:48:06.148Z,99.90
2019-02-16T15:50:34.832Z,99.90
2019-02-16T15:53:03.707Z,99.90
2019-02-16T15:55:32.384Z,99.90
2019-02-16T15:58:01.008Z,99.90
2019-02-16T16:00:30.108Z,99.90
2019-02-16T16:02:59.706Z,99.90
2019-02-16T16:05:29.038Z,99.90
2019-02-16T16:08:15.572Z,99.90
2019-02-16T16:10:48.656Z,99.90
2019-02-16T16:13:21.560Z,99.90
2019-02-16T16:15:57.335Z,99.90
2019-02-16T16:18:30.251Z,99.90
2019-02-16T16:21:00.725Z,99.90
2019-02-16T16:23:33.922Z,99.90
2019-02-16T16:26:19.920Z,99.90
2019-02-16T16:29:00.518Z,99.90
2019-02-16T16:31:30.534Z,99.90
2019-02-16T16:34:01.538Z,99.90
2019-02-16T16:36:46.774Z,99.90
2019-02-16T16:39:19.782Z,99.90
2019-02-16T16:41:52.795Z,99.90
2019-02-16T16:44:31.906Z,99.90
2019-02-16T16:47:02.165Z,99.90
2019-02-16T16:49:48.237Z,99.90
2019-02-16T16:52:33.361Z,99.90
2019-02-16T16:55:12.796Z,99.90
2019-02-16T16:57:43.001Z,99.90
2019-02-16T17:00:13.281Z,99.90
2019-02-16T17:02:55.372Z,99.90
2019-02-16T17:05:37.419Z,99.90
2019-02-16T17:08:10.189Z,99.90
2019-02-16T17:10:46.188Z,99.90
2019-02-16T17:13:19.073Z,99.90
2019-02-16T17:15:51.735Z,99.90
2019-02-16T17:18:39.989Z,99.90
2019-02-16T17:21:26.046Z,99.90
2019-02-16T17:24:12.173Z,99.90
2019-02-16T17:26:45.094Z,99.90
2019-02-16T17:29:24.100Z,99.90
2019-02-16T17:31:57.457Z,99.90
2019-02-16T17:34:39.452Z,99.90
2019-02-16T17:37:21.410Z,99.90
2019-02-16T17:40:03.518Z,99.90
2019-02-16T17:42:39.317Z,99.90
2019-02-16T17:45:14.201Z,99.90
2019-02-16T17:47:59.076Z,99.90
2019-02-16T17:50:41.308Z,99.90
2019-02-16T17:53:20.547Z,99.90
2019-02-16T17:55:53.724Z,99.90
2019-02-16T17:58:29.786Z,99.90
2019-02-16T18:01:00.141Z,99.90
2019-02-16T18:03:33.548Z,99.90
2019-02-16T18:06:03.787Z,99.90
2019-02-16T18:08:36.661Z,99.90
2019-02-16T18:11:21.783Z,99.90
2019-02-16T18:13:57.537Z,99.90
2019-02-16T18:16:32.320Z,99.90
2019-02-16T18:19:05.453Z,99.90
2019-02-16T18:21:38.440Z,99.90
2019-02-16T18:24:08.760Z,99.90
2019-02-16T18:26:44.994Z,99.90
2019-02-16T18:29:20.639Z,99.90
2019-02-16T18:31:56.585Z,99.90
2019-02-16T18:34:29.350Z,99.90
2019-02-16T18:37:05.398Z,99.90
2019-02-16T18:39:53.757Z,99.90
2019-02-16T18:42:23.998Z,99.90
2019-02-16T18:45:00.359Z,99.90
2019-02-16T18:47:42.374Z,99.90
2019-02-16T18:50:18.563Z,99.90
2019-02-16T18:52:48.857Z,99.90
2019-02-16T18:55:22.061Z,99.90
2019-02-16T18:57:52.244Z,99.90
2019-02-16T19:00:37.210Z,99.90
2019-02-16T19:03:10.169Z,99.90
2019-02-16T19:05:46.213Z,99.90
2019-02-16T19:08:16.922Z,99.90
2019-02-16T19:11:07.375Z,99.90
2019-02-16T19:13:37.222Z,99.90
2019-02-16T19:16:19.637Z,99.90
2019-02-16T19:18:55.717Z,99.90
2019-02-16T19:21:25.897Z,99.90
2019-02-16T19:24:07.852Z,99.90
2019-02-16T19:26:38.107Z,99.90
2019-02-16T19:29:13.014Z,99.90
2019-02-16T19:31:43.420Z,99.90
2019-02-16T19:34:16.410Z,99.90
2019-02-16T19:36:46.707Z,99.90
2019-02-16T19:39:22.375Z,99.90
2019-02-16T19:42:04.402Z,99.90
2019-02-16T19:44:49.673Z,99.90
2019-02-16T19:47:19.945Z,99.90
2019-02-16T19:49:50.181Z,99.90
2019-02-16T19:52:36.261Z,99.90
2019-02-16T19:55:07.413Z,99.90
2019-02-16T19:57:40.517Z,99.90
2019-02-16T20:00:13.493Z,99.90
2019-02-16T20:02:52.331Z,99.90
2019-02-16T20:05:25.503Z,99.90
2019-02-16T20:08:04.808Z,99.90
2019-02-16T20:10:51.089Z,99.90
2019-02-16T20:13:21.288Z,99.90
2019-02-16T20:15:51.495Z,99.90
2019-02-16T20:18:24.509Z,99.90
2019-02-16T20:20:57.528Z,99.90
2019-02-16T20:23:42.444Z,99.90
2019-02-16T20:26:28.646Z,99.90
2019-02-16T20:29:15.033Z,99.90
2019-02-16T20:32:03.216Z,99.90
2019-02-16T20:34:36.392Z,99.90
2019-02-16T20:37:09.174Z,99.90
2019-02-16T20:39:44.991Z,99.90
2019-02-16T20:42:18.033Z,99.90
2019-02-16T20:44:51.057Z,99.90
2019-02-16T20:47:30.173Z,99.90
2019-02-16T20:50:09.418Z,99.90
2019-02-16T20:52:48.302Z,99.90
2019-02-16T20:55:18.618Z,99.90
2019-02-16T20:57:51.741Z,99.90
2019-02-16T21:00:38.391Z,99.90
2019-02-16T21:03:18.902Z,99.90
2019-02-16T21:06:04.449Z,99.90
2019-02-16T21:08:47.045Z,99.90
2019-02-16T21:11:20.370Z,99.90
2019-02-16T21:13:50.592Z,99.90
2019-02-16T21:16:20.849Z,99.90
2019-02-16T21:18:51.122Z,99.90
2019-02-16T21:21:27.289Z,99.90
2019-02-16T21:24:03.160Z,99.90
2019-02-16T21:26:49.696Z,99.90
2019-02-16T21:29:37.697Z,99.90
2019-02-16T21:32:16.658Z,99.90
2019-02-16T21:34:46.900Z,99.90
2019-02-16T21:37:35.013Z,99.90
2019-02-16T21:40:23.239Z,99.90
2019-02-16T21:42:53.448Z,99.90
2019-02-16T21:45:41.702Z,99.90
2019-02-16T21:48:11.922Z,99.90
2019-02-16T21:50:42.134Z,99.90
2019-02-16T21:53:21.171Z,99.90
2019-02-16T21:55:46.752Z,99.90
2019-02-16T21:58:19.534Z,99.90
2019-02-16T22:01:04.700Z,99.90
2019-02-16T22:03:49.833Z,99.90
2019-02-16T22:06:37.988Z,99.90
2019-02-16T22:09:16.540Z,99.90
2019-02-16T22:11:46.784Z,99.90
2019-02-16T22:14:15.465Z,99.90
2019-02-16T22:16:44.030Z,99.90
2019-02-16T22:19:12.592Z,99.90
2019-02-16T22:21:41.443Z,99.90
2019-02-16T22:24:10.042Z,99.90
2019-02-16T22:26:38.600Z,99.90
2019-02-16T22:29:07.195Z,99.90
2019-02-16T22:31:35.755Z,99.90
2019-02-16T22:34:04.357Z,99.90
2019-02-16T22:36:32.916Z,99.90
2019-02-16T22:39:01.532Z,99.90
2019-02-16T22:41:30.093Z,99.90
2019-02-16T22:43:58.657Z,99.90
2019-02-16T22:46:27.257Z,99.90
2019-02-16T22:48:55.830Z,99.90
2019-02-16T22:51:24.421Z,99.90
2019-02-16T22:53:52.989Z,99.90
2019-02-16T22:56:21.945Z,99.90
2019-02-16T22:58:50.532Z,99.90
2019-02-16T23:01:19.332Z,99.90
2019-02-16T23:03:48.005Z,99.90
2019-02-16T23:06:16.569Z,99.90
2019-02-16T23:08:45.137Z,99.90
2019-02-16T23:11:13.748Z,99.90
2019-02-16T23:13:42.313Z,99.90
2019-02-16T23:16:10.881Z,99.90
2019-02-16T23:18:39.608Z,99.90
2019-02-16T23:21:08.172Z,99.90
2019-02-16T23:23:36.744Z,99.90
2019-02-16T23:26:05.352Z,99.90
2019-02-16T23:28:38.894Z,99.90
2019-02-16T23:31:04.202Z,99.90
2019-02-16T23:33:32.796Z,99.90
2019-02-16T23:36:01.363Z,99.90
2019-02-16T23:38:29.958Z,99.90
2019-02-16T23:40:58.517Z,99.90
2019-02-16T23:43:27.132Z,99.90
2019-02-16T23:45:55.674Z,99.90
2019-02-16T23:48:24.263Z,99.90
2019-02-16T23:50:52.886Z,99.90
2019-02-16T23:53:21.539Z,99.90
2019-02-16T23:55:50.085Z,99.90
2019-02-16T23:58:18.702Z,99.90
